EGSS Airport Information

Runway Information
Runway 04 Length 10003 ft width 151 ft
Elevation 324 ft Threshold 0 ft Heading 44
Runway 22 Length 10003 ft Width 151 ft
Elevation 348 ft Threshold 0 ft Heading 224
Airport Frequencies
Type APP Name Essex Rada Frequency 120.625 MHZ
Type ATIS Name ATIS Frequency 127.175 MHZ
Type CLD Name CLNC DEL Frequency 121.95 MHZ
Type DIR Name DIRECTOR Frequency 136.2 MHZ
Type GND Name GND Frequency 121.725 MHZ
Type RDR Name Director Frequency 136.2 MHZ
Type TWR Name TWR Frequency 123.8 MHZ
Airport Navaids
Type VOR-DME Name Barkway Frequency 116250 KHZ
Type NDB Name Stansted Frequency 429 KHZ
Airport Weather Information & NOTAM
ADDS - METARS form results

(1309 UTC 22 June 2018)
 
METAR text: EGSS 221250Z AUTO 35007KT 290V040 9999 NCD 19/04 Q1030
Conditions at: EGSS (STANSTED AIRPORT, GB) observed 1250 UTC 22 June 2018
Temperature: 19.0°C (66°F)
Dewpoint: 4.0°C (39°F) [RH = 37%]
Pressure (altimeter): 30.41 inches Hg (1030.0 mb)
Winds: from the N (350 degrees) at 8 MPH (7 knots; 3.6 m/s)
Visibility: 6 or more miles (10+ km)
Ceiling: at least 12,000 feet AGL
Clouds: sky clear below 12,000 feet AGL
Weather: no significant weather observed at this time

METAR text: EGSS 221220Z AUTO 33010KT 270V010 9999 NCD 19/04 Q1031
Conditions at: EGSS (STANSTED AIRPORT, GB) observed 1220 UTC 22 June 2018
Temperature: 19.0°C (66°F)
Dewpoint: 4.0°C (39°F) [RH = 37%]
Pressure (altimeter): 30.44 inches Hg (1031.0 mb)
Winds: from the NNW (330 degrees) at 12 MPH (10 knots; 5.2 m/s)
Visibility: 6 or more miles (10+ km)
Ceiling: at least 12,000 feet AGL
Clouds: sky clear below 12,000 feet AGL
Weather: no significant weather observed at this time